Impacts METAR Board INFO
IDs:

KTPA - Tampa Intl Arpt, FL, US

Updated at: 1430 UTC 18 Dec 2017
Potential Impact None Slight Moderate High
Time18/02Z 18/03Z 18/04Z 18/05Z 18/06Z 18/07Z 18/08Z 18/09Z 18/10Z 18/11Z 18/12Z 18/13Z 18/14Z
VIS10 10 10 10 10 10 9 9 8 8 7 7 9
CIG-- -- -- -- -- -- -- -- -- -- -- -- --
CoverFEWCLRFEWFEWFEWFEWFEWCLRCLRCLRFEWFEWFEW
FltCatVFRVFRVFRVFRVFRVFRVFRVFRVFRVFRVFRVFRVFR
WX--------------------------
WDir000011000001501700150
WSpd0 0 0 0 3 0 0 0 0 3 5 0 4
WGst-- -- -- -- -- -- -- -- -- -- -- -- --
Raw hourly METARs
KTPA 180153Z 00000KT 10SM FEW250 22/17 A3023 RMK AO2 SLP237 T02170167
KTPA 180253Z 00000KT 10SM CLR 21/16 A3023 RMK AO2 SLP237 T02060161 51006
KTPA 180353Z 00000KT 10SM FEW025 21/17 A3024 RMK AO2 SLP238 T02060167
KTPA 180453Z 00000KT 10SM FEW025 18/16 A3023 RMK AO2 SLP236 T01830156 402610144
KTPA 180553Z 11003KT 10SM FEW085 21/16 A3022 RMK AO2 SLP234 T02060161 10233 20183 58003
KTPA 180653Z 00000KT 10SM FEW060 19/16 A3022 RMK AO2 SLP233 T01940161
KTPA 180753Z 00000KT 9SM FEW035 18/16 A3022 RMK AO2 SLP233 T01780156
KTPA 180853Z 00000KT 9SM CLR 18/16 A3021 RMK AO2 SLP229 T01830161 58005
KTPA 180953Z 00000KT 8SM CLR 18/16 A3019 RMK AO2 SLP224 T01780161
KTPA 181053Z 15003KT 8SM CLR 19/18 A3020 RMK AO2 SLP227 T01940178
KTPA 181153Z 17005KT 7SM FEW140 19/18 A3021 RMK AO2 SLP231 T01940178 10206 20172 53002
KTPA 181253Z 00000KT 7SM FEW150 20/18 A3023 RMK AO2 SLP236 T02000183
KTPA 181353Z 15004KT 9SM FEW200 21/19 A3024 RMK AO2 SLP239 T02110189